Time;durP1;ratioP1;P1;durP2;ratioP2;P2;SDS_P1;SDS_P2;PMS_P1;PMS_P2;Temp;Humidity;BMP_temperature;BMP_pressure;BME280_temperature;BME280_humidity;BME280_pressure;Samples;Min_cycle;Max_cycle;Signal;HPM_P1;HPM_P2
2022/10/21 00:00:56;;;;;;;5.18;3.97;;;;;;;10.78;46.48;94703.63;5048929;28;20024;-80
2022/10/21 00:03:23;;;;;;;4.97;3.75;;;;;;;10.72;46.63;94704.78;5049587;28;20017;-80
2022/10/21 00:05:48;;;;;;;5.55;3.72;;;;;;;10.74;46.59;94705.28;5050659;28;20029;-79
2022/10/21 00:08:15;;;;;;;7.18;4.30;;;;;;;10.51;46.46;94669.75;5048209;28;20044;-79
2022/10/21 00:10:40;;;;;;;6.78;4.40;;;;;;;10.72;46.46;94699.44;5047923;28;20024;-80
2022/10/21 00:13:06;;;;;;;6.88;4.93;;;;;;;10.62;46.51;94687.09;5031959;28;20413;-78
2022/10/21 00:15:31;;;;;;;5.07;4.22;;;;;;;10.52;46.24;94670.53;5044330;28;20349;-80
2022/10/21 00:17:57;;;;;;;5.65;3.97;;;;;;;10.66;46.50;94690.00;5044100;28;20017;-79
2022/10/21 00:20:22;;;;;;;7.70;4.10;;;;;;;10.64;46.33;94692.94;5048195;28;20032;-80
2022/10/21 00:22:47;;;;;;;6.60;4.53;;;;;;;10.58;46.58;94680.00;5049387;28;20572;-78
2022/10/21 00:25:13;;;;;;;4.88;3.80;;;;;;;10.42;46.60;94673.34;5048885;28;20111;-79
2022/10/21 00:27:39;;;;;;;5.60;3.78;;;;;;;10.61;46.60;94688.19;5046934;28;20419;-79
2022/10/21 00:30:06;;;;;;;5.13;4.00;;;;;;;10.56;46.82;94690.94;5040718;28;20544;-81
2022/10/21 00:32:31;;;;;;;4.13;3.65;;;;;;;10.59;46.58;94682.38;5050556;28;20574;-81
2022/10/21 00:34:56;;;;;;;6.60;4.55;;;;;;;10.56;46.42;94674.97;5049899;28;20033;-80
2022/10/21 00:37:22;;;;;;;5.60;4.00;;;;;;;10.36;46.27;94645.25;5048283;28;20074;-78
2022/10/21 00:39:47;;;;;;;6.45;4.10;;;;;;;10.39;46.51;94650.78;5044285;28;20029;-78
2022/10/21 00:42:17;;;;;;;5.80;3.92;;;;;;;10.58;46.62;94677.34;5050065;28;20075;-79
2022/10/21 00:45:00;;;;;;;6.65;4.55;;;;;;;10.48;46.24;94661.56;5051049;28;20024;-79
2022/10/21 00:47:25;;;;;;;7.55;4.30;;;;;;;10.33;46.51;94650.06;5037246;28;20040;-78
2022/10/21 00:49:59;;;;;;;5.85;4.15;;;;;;;10.47;46.33;94678.59;5045711;28;20025;-78
2022/10/21 00:52:26;;;;;;;5.70;3.90;;;;;;;10.24;46.51;94651.81;5051900;28;20181;-79
2022/10/21 00:54:54;;;;;;;5.75;4.63;;;;;;;10.19;46.15;94643.91;5030574;28;20032;-78
2022/10/21 00:57:21;;;;;;;22.98;4.72;;;;;;;10.30;46.28;94666.59;5046220;28;20854;-78
2022/10/21 00:59:50;;;;;;;5.80;4.60;;;;;;;10.22;46.51;94667.25;5034177;28;20045;-78
2022/10/21 01:02:16;;;;;;;7.88;4.75;;;;;;;10.26;46.44;94672.78;5048352;28;20020;-80
2022/10/21 01:04:43;;;;;;;6.18;4.93;;;;;;;9.99;46.15;94641.56;5049712;28;20522;-78
2022/10/21 01:07:08;;;;;;;5.88;4.85;;;;;;;9.79;46.33;94612.63;5048864;28;20064;-79
2022/10/21 01:09:34;;;;;;;8.30;5.45;;;;;;;10.05;47.17;94672.31;5047675;28;20091;-80
2022/10/21 01:12:02;;;;;;;8.90;6.07;;;;;;;9.95;46.58;94658.38;5047965;28;20047;-81
2022/10/21 01:14:30;;;;;;;9.02;6.07;;;;;;;10.04;46.79;94673.38;5048562;28;20103;-79
2022/10/21 01:17:06;;;;;;;10.95;6.90;;;;;;;9.97;47.17;94678.28;5049500;28;20053;-80
2022/10/21 01:20:03;;;;;;;15.23;7.53;;;;;;;9.88;47.13;94675.47;5046413;28;20020;-79
2022/10/21 01:22:53;;;;;;;18.42;9.77;;;;;;;9.85;47.21;94683.22;5048214;28;20032;-78
2022/10/21 01:25:43;;;;;;;28.88;10.18;;;;;;;9.81;47.23;94684.88;5049553;28;20540;-79
2022/10/21 01:28:18;;;;;;;12.90;6.88;;;;;;;9.77;47.69;94683.88;5050795;28;20036;-80
2022/10/21 01:30:47;;;;;;;11.43;7.78;;;;;;;9.62;47.66;94670.78;5031117;28;20430;-80
2022/10/21 01:33:18;;;;;;;13.30;7.25;;;;;;;9.76;47.59;94692.91;5049281;28;20025;-78
2022/10/21 01:36:02;;;;;;;8.50;5.95;;;;;;;9.74;47.22;94692.38;5047635;28;20090;-78
2022/10/21 01:38:40;;;;;;;8.32;5.97;;;;;;;9.72;47.26;94691.91;5051256;28;20029;-77
2022/10/21 01:41:14;;;;;;;7.38;5.47;;;;;;;9.70;47.18;94688.72;5047256;28;20036;-80
2022/10/21 01:43:59;;;;;;;8.90;5.75;;;;;;;9.45;47.16;94661.44;5049558;28;20036;-80
2022/10/21 01:46:33;;;;;;;7.50;5.90;;;;;;;9.45;47.46;94665.94;5048953;28;20044;-81
2022/10/21 01:49:06;;;;;;;8.13;5.80;;;;;;;9.37;47.67;94656.75;5048389;28;20389;-78
2022/10/21 01:51:34;;;;;;;11.88;7.50;;;;;;;9.59;47.74;94697.91;5049406;28;20028;-79
2022/10/21 01:54:06;;;;;;;10.68;6.57;;;;;;;9.60;47.40;94705.59;5049065;28;20148;-79
2022/10/21 01:56:32;;;;;;;20.13;7.55;;;;;;;9.39;47.28;94673.19;5048987;28;20492;-79
2022/10/21 01:59:00;;;;;;;9.60;6.88;;;;;;;9.58;47.22;94699.00;5034625;28;20028;-80
2022/10/21 02:01:26;;;;;;;13.57;7.22;;;;;;;9.57;47.10;94703.50;5046433;28;20365;-78
2022/10/21 02:03:59;;;;;;;10.23;6.60;;;;;;;9.42;47.58;94690.41;5049165;28;20246;-79
2022/10/21 02:06:25;;;;;;;11.65;6.63;;;;;;;9.53;47.72;94702.50;5048939;28;20086;-79
2022/10/21 02:08:51;;;;;;;12.60;7.30;;;;;;;9.27;47.83;94658.75;5047442;28;20717;-80
2022/10/21 02:11:17;;;;;;;7.05;5.78;;;;;;;9.31;47.97;94671.16;5048310;28;20114;-79
2022/10/21 02:13:55;;;;;;;10.45;5.57;;;;;;;9.53;47.73;94699.84;5033914;28;20017;-79
2022/10/21 02:16:25;;;;;;;11.18;5.57;;;;;;;9.23;47.61;94652.44;5048297;28;20044;-79
2022/10/21 02:18:50;;;;;;;10.32;5.75;;;;;;;9.42;47.70;94693.06;5048069;28;20020;-78
2022/10/21 02:21:21;;;;;;;13.07;5.70;;;;;;;9.40;47.75;94696.00;5048960;28;20099;-79
2022/10/21 02:23:57;;;;;;;8.38;6.32;;;;;;;9.40;47.66;94698.66;5045765;28;20578;-78
2022/10/21 02:26:25;;;;;;;8.35;5.10;;;;;;;9.33;47.29;94700.88;5047734;28;20029;-79
2022/10/21 02:28:52;;;;;;;9.00;5.18;;;;;;;9.14;47.62;94675.38;5048223;28;20661;-78
2022/10/21 02:31:36;;;;;;;8.40;6.13;;;;;;;9.12;47.76;94667.66;5047211;28;20102;-80
2022/10/21 02:34:34;;;;;;;8.05;5.40;;;;;;;9.30;47.61;94701.44;5053883;28;20021;-78
2022/10/21 02:37:19;;;;;;;10.98;5.30;;;;;;;9.22;47.74;94699.41;5008816;28;20079;-78
2022/10/21 02:40:20;;;;;;;7.53;5.40;;;;;;;9.26;47.63;94705.72;5051804;28;20078;-79
2022/10/21 02:42:53;;;;;;;8.68;5.03;;;;;;;9.22;47.71;94704.72;5010542;28;20423;-78
2022/10/21 02:45:20;;;;;;;7.88;5.13;;;;;;;9.16;47.57;94702.38;5039266;28;20508;-79
2022/10/21 02:47:47;;;;;;;6.80;4.95;;;;;;;9.20;47.66;94706.84;5050478;28;20032;-79
2022/10/21 02:50:14;;;;;;;7.13;4.55;;;;;;;9.19;47.87;94709.81;5053827;28;20070;-77
2022/10/21 02:52:40;;;;;;;5.53;4.28;;;;;;;8.91;47.65;94672.38;5049914;28;20032;-79
2022/10/21 02:55:06;;;;;;;8.93;5.32;;;;;;;9.07;47.51;94701.41;5053371;28;20079;-78
2022/10/21 02:57:31;;;;;;;6.60;4.78;;;;;;;9.16;47.38;94720.97;5052267;28;20480;-79
2022/10/21 02:59:57;;;;;;;9.80;4.68;;;;;;;9.12;47.07;94717.31;5054505;28;20025;-78
2022/10/21 03:02:22;;;;;;;6.82;4.85;;;;;;;8.90;47.58;94691.25;5049693;28;20025;-80
2022/10/21 03:04:47;;;;;;;6.88;5.50;;;;;;;8.80;47.26;94675.44;5050041;28;20057;-78
2022/10/21 03:07:13;;;;;;;7.45;5.07;;;;;;;8.56;47.30;94643.53;5048994;28;20028;-78
2022/10/21 03:09:39;;;;;;;8.20;5.95;;;;;;;8.79;47.75;94689.75;5051075;28;20135;-80
2022/10/21 03:12:04;;;;;;;9.32;5.85;;;;;;;8.95;48.04;94715.06;5052493;28;20488;-79
2022/10/21 03:14:29;;;;;;;8.90;4.82;;;;;;;8.93;47.68;94718.00;5050610;28;20388;-79
2022/10/21 03:16:55;;;;;;;8.98;5.63;;;;;;;8.92;47.88;94720.91;5050274;28;20049;-79
2022/10/21 03:19:20;;;;;;;8.75;5.60;;;;;;;8.89;47.65;94721.50;5050916;28;20151;-80
2022/10/21 03:21:45;;;;;;;8.32;6.18;;;;;;;8.83;47.63;94723.41;5051054;28;20056;-78
2022/10/21 03:24:11;;;;;;;8.73;5.00;;;;;;;8.70;48.07;94696.75;5037923;28;20020;-79
2022/10/21 03:26:36;;;;;;;7.53;5.25;;;;;;;8.61;47.74;94690.47;5049730;28;20423;-79
2022/10/21 03:29:02;;;;;;;7.20;5.00;;;;;;;8.74;48.05;94718.97;5050456;28;20109;-79
2022/10/21 03:31:27;;;;;;;8.23;5.35;;;;;;;8.52;48.01;94691.03;5052998;28;20115;-79
2022/10/21 03:33:52;;;;;;;7.70;5.80;;;;;;;8.51;47.98;94705.38;5049465;28;20115;-79
2022/10/21 03:36:18;;;;;;;7.43;4.85;;;;;;;8.46;48.04;94689.50;5053598;28;20020;-77
2022/10/21 03:38:43;;;;;;;6.40;4.75;;;;;;;8.64;47.67;94722.50;5050893;28;20028;-78
2022/10/21 03:41:09;;;;;;;8.35;4.95;;;;;;;8.55;47.98;94718.88;5051808;28;20116;-81
2022/10/21 03:43:34;;;;;;;6.60;4.32;;;;;;;8.51;47.74;94721.28;5037187;28;20535;-80
2022/10/21 03:45:59;;;;;;;17.77;6.30;;;;;;;8.38;47.93;94705.22;5052900;28;20391;-78
2022/10/21 03:48:25;;;;;;;7.65;5.20;;;;;;;8.46;48.15;94729.25;5049827;28;20021;-78
2022/10/21 03:50:50;;;;;;;7.05;5.38;;;;;;;8.22;48.24;94696.59;5052634;28;20030;-78
2022/10/21 03:53:16;;;;;;;8.38;6.03;;;;;;;8.34;48.53;94714.78;5051302;28;20081;-78
2022/10/21 03:55:41;;;;;;;9.15;6.10;;;;;;;8.14;48.68;94683.94;5050205;28;20532;-78
2022/10/21 03:58:06;;;;;;;17.17;6.47;;;;;;;8.23;48.85;94702.66;5051555;28;20024;-78
2022/10/21 04:00:32;;;;;;;15.27;5.65;;;;;;;8.32;48.87;94723.00;5048513;28;20033;-79
2022/10/21 04:02:58;;;;;;;11.75;6.00;;;;;;;8.37;48.58;94725.63;5050616;28;20035;-78
2022/10/21 04:05:23;;;;;;;9.23;6.38;;;;;;;8.24;48.77;94707.72;5047460;28;20028;-80
2022/10/21 04:07:48;;;;;;;9.50;6.88;;;;;;;8.17;48.87;94704.56;5049380;28;20059;-80
2022/10/21 04:10:14;;;;;;;10.25;6.97;;;;;;;8.31;48.90;94715.34;5050099;28;20021;-77
2022/10/21 04:12:39;;;;;;;8.82;6.15;;;;;;;8.25;48.74;94711.94;5048955;28;20028;-79
2022/10/21 04:15:06;;;;;;;9.23;6.55;;;;;;;8.18;48.39;94705.34;5047727;28;20031;-79
2022/10/21 04:17:31;;;;;;;16.30;5.78;;;;;;;8.30;48.65;94730.47;5047065;28;20044;-78
2022/10/21 04:19:57;;;;;;;7.50;5.75;;;;;;;8.02;48.76;94686.16;5031513;28;20025;-79
2022/10/21 04:22:22;;;;;;;7.40;5.40;;;;;;;8.17;48.66;94717.81;5046351;28;20413;-78
2022/10/21 04:24:47;;;;;;;11.43;5.18;;;;;;;8.02;48.58;94686.16;5047955;28;20539;-78
2022/10/21 04:27:13;;;;;;;11.10;5.57;;;;;;;8.27;48.67;94715.09;5047789;28;20036;-81
2022/10/21 04:29:38;;;;;;;12.73;6.20;;;;;;;8.29;48.82;94725.44;5049981;28;20029;-78
2022/10/21 04:32:04;;;;;;;6.95;4.40;;;;;;;8.28;48.71;94721.19;5028878;28;20543;-79
2022/10/21 04:34:29;;;;;;;5.68;4.88;;;;;;;8.10;48.62;94691.66;5046177;28;20024;-80
2022/10/21 04:36:54;;;;;;;8.27;5.68;;;;;;;8.04;48.39;94690.09;5048379;28;20677;-78
2022/10/21 04:39:20;;;;;;;7.40;5.20;;;;;;;7.80;48.30;94657.41;5052106;28;20032;-80
2022/10/21 04:41:47;;;;;;;7.93;4.78;;;;;;;8.01;48.57;94701.25;5027847;28;20088;-79
2022/10/21 04:44:13;;;;;;;11.38;5.00;;;;;;;7.87;48.58;94681.75;5050156;28;20035;-79
2022/10/21 04:46:38;;;;;;;8.13;6.32;;;;;;;8.09;48.72;94727.16;5048582;28;20054;-78
2022/10/21 04:49:03;;;;;;;10.90;6.20;;;;;;;8.08;48.80;94730.06;5050154;28;20032;-78
2022/10/21 04:51:29;;;;;;;11.05;8.00;;;;;;;7.80;48.75;94693.69;5035088;28;20112;-78
2022/10/21 04:53:54;;;;;;;11.70;8.57;;;;;;;7.89;48.78;94718.53;5049060;28;20024;-79
2022/10/21 04:56:20;;;;;;;16.55;8.18;;;;;;;7.77;49.06;94688.94;5047765;28;20389;-79
2022/10/21 04:58:45;;;;;;;10.90;7.47;;;;;;;7.92;49.23;94720.66;5050044;28;20017;-80
2022/10/21 05:01:10;;;;;;;8.63;6.35;;;;;;;7.95;48.88;94734.13;5051544;28;20059;-78
2022/10/21 05:03:36;;;;;;;10.73;7.00;;;;;;;7.86;49.47;94714.59;5048338;28;20143;-79
2022/10/21 05:06:01;;;;;;;9.55;6.63;;;;;;;7.81;49.37;94711.16;5036683;28;20115;-79
2022/10/21 05:08:26;;;;;;;13.30;7.00;;;;;;;7.83;49.22;94711.66;5045696;28;20039;-79
2022/10/21 05:11:02;;;;;;;10.38;6.22;;;;;;;7.96;49.45;94730.41;5048043;28;20492;-78
2022/10/21 05:13:28;;;;;;;12.95;7.40;;;;;;;7.84;49.35;94719.34;5049639;28;20035;-78
2022/10/21 05:16:02;;;;;;;15.98;6.88;;;;;;;7.45;49.30;94663.66;5052161;28;20065;-78
2022/10/21 05:18:27;;;;;;;25.65;8.15;;;;;;;7.77;49.40;94712.78;5048147;28;20832;-79
2022/10/21 05:20:54;;;;;;;20.73;9.55;;;;;;;7.95;49.61;94735.97;5050829;28;20036;-78
2022/10/21 05:23:19;;;;;;;32.05;11.68;;;;;;;7.94;50.23;94742.34;5048884;28;20036;-78
2022/10/21 05:25:46;;;;;;;26.08;10.00;;;;;;;7.97;50.15;94741.81;5045929;28;20530;-78
2022/10/21 05:28:12;;;;;;;17.20;9.85;;;;;;;7.79;50.18;94708.00;5051210;28;20683;-78
2022/10/21 05:30:37;;;;;;;14.65;9.43;;;;;;;8.03;50.43;94736.19;5046842;28;20040;-78
2022/10/21 05:33:04;;;;;;;16.92;8.70;;;;;;;8.08;50.29;94735.38;5027274;28;20419;-77
2022/10/21 05:35:30;;;;;;;14.68;9.73;;;;;;;8.11;50.43;94738.28;5043645;28;20582;-79
2022/10/21 05:37:55;;;;;;;13.60;9.07;;;;;;;7.96;50.42;94713.72;5034882;28;20029;-78
2022/10/21 05:40:21;;;;;;;21.73;10.00;;;;;;;7.69;50.38;94661.16;5031676;28;20527;-78
2022/10/21 05:42:46;;;;;;;14.60;9.60;;;;;;;8.27;50.49;94752.19;5043768;28;20054;-78
2022/10/21 05:45:11;;;;;;;26.15;9.45;;;;;;;8.31;50.31;94747.97;5046464;28;20032;-78
2022/10/21 05:47:39;;;;;;;19.40;9.70;;;;;;;8.15;50.53;94717.31;5025577;28;20112;-77
2022/10/21 05:50:05;;;;;;;17.00;10.80;;;;;;;8.22;50.40;94717.00;5033307;28;20032;-78
2022/10/21 05:52:31;;;;;;;23.70;11.60;;;;;;;8.51;50.98;94753.09;5042251;28;20028;-77
2022/10/21 05:54:56;;;;;;;16.02;10.52;;;;;;;8.45;50.88;94738.31;5031981;28;20452;-79
2022/10/21 05:57:22;;;;;;;20.42;11.25;;;;;;;8.50;50.81;94737.47;5024233;28;20064;-77
2022/10/21 05:59:47;;;;;;;17.10;10.00;;;;;;;8.55;51.10;94742.75;5043290;28;20056;-77
2022/10/21 06:02:12;;;;;;;19.00;12.30;;;;;;;8.78;51.26;94773.03;5044908;28;20028;-78
2022/10/21 06:04:38;;;;;;;18.95;12.93;;;;;;;8.79;51.12;94769.31;5045215;28;20032;-77
2022/10/21 06:07:03;;;;;;;17.92;12.13;;;;;;;8.82;51.06;94764.25;5041733;28;20294;-79
2022/10/21 06:09:29;;;;;;;16.35;11.20;;;;;;;8.89;51.00;94785.94;5047607;28;20491;-77
2022/10/21 06:11:56;;;;;;;17.23;10.95;;;;;;;8.95;50.91;94776.84;5046492;28;20111;-77
2022/10/21 06:14:22;;;;;;;22.80;12.32;;;;;;;8.94;50.71;94783.25;5046169;28;20059;-77
2022/10/21 06:16:48;;;;;;;19.10;10.77;;;;;;;8.85;50.61;94753.06;5041326;28;21462;-80
2022/10/21 06:19:13;;;;;;;25.88;12.52;;;;;;;9.04;50.68;94766.44;5045934;28;20040;-78
2022/10/21 06:21:38;;;;;;;19.15;12.38;;;;;;;9.06;50.41;94758.19;5045658;28;20040;-78
2022/10/21 06:24:04;;;;;;;18.23;12.27;;;;;;;9.18;50.26;94766.59;5042259;28;20032;-77
2022/10/21 06:26:29;;;;;;;17.73;12.20;;;;;;;9.28;50.33;94775.28;5045253;28;20427;-79
2022/10/21 06:28:56;;;;;;;18.67;11.80;;;;;;;9.38;50.31;94801.72;5047982;28;20029;-77
2022/10/21 06:31:21;;;;;;;15.80;11.40;;;;;;;9.40;50.73;94802.22;5049005;28;20733;-78
2022/10/21 06:33:48;;;;;;;26.42;12.85;;;;;;;9.43;50.28;94792.91;5049617;28;20029;-79
2022/10/21 06:36:13;;;;;;;17.23;11.30;;;;;;;9.61;50.22;94791.38;5046392;28;20028;-78
2022/10/21 06:38:39;;;;;;;19.70;12.13;;;;;;;9.72;50.10;94812.25;5046730;28;20013;-80
2022/10/21 06:41:07;;;;;;;16.58;11.23;;;;;;;9.81;49.54;94802.56;5045718;28;20469;-77
2022/10/21 06:43:33;;;;;;;21.58;11.73;;;;;;;9.82;49.67;94793.53;5047131;28;20030;-77
2022/10/21 06:46:04;;;;;;;15.52;10.77;;;;;;;9.98;49.07;94810.06;5045643;28;20107;-78
2022/10/21 06:48:29;;;;;;;18.50;12.10;;;;;;;9.96;49.42;94793.63;5045259;28;20029;-79
2022/10/21 06:51:00;;;;;;;17.00;11.07;;;;;;;9.85;49.34;94762.94;5044879;28;20025;-78
2022/10/21 06:53:25;;;;;;;19.30;11.27;;;;;;;10.13;49.41;94793.13;5024064;28;20036;-79
2022/10/21 06:55:59;;;;;;;18.08;11.98;;;;;;;10.25;49.38;94812.91;5032031;28;20029;-77
2022/10/21 06:58:25;;;;;;;12.77;10.45;;;;;;;10.30;49.30;94802.22;5024184;28;20033;-79
2022/10/21 07:00:50;;;;;;;16.83;11.57;;;;;;;10.32;49.28;94808.00;5046106;28;20029;-78
2022/10/21 07:03:15;;;;;;;20.30;13.02;;;;;;;10.26;49.26;94782.59;5032090;28;20517;-77
2022/10/21 07:05:41;;;;;;;23.95;12.85;;;;;;;10.13;49.16;94793.91;5033514;28;20564;-77
2022/10/21 07:08:06;;;;;;;20.38;13.23;;;;;;;10.13;49.90;94799.22;5040131;28;20313;-79
2022/10/21 07:10:32;;;;;;;20.73;12.32;;;;;;;10.26;49.89;94814.50;5044285;28;20025;-77
2022/10/21 07:12:57;;;;;;;21.80;12.52;;;;;;;10.43;49.61;94811.34;5033619;28;20144;-78
2022/10/21 07:15:22;;;;;;;23.92;13.68;;;;;;;10.22;49.87;94800.16;5023589;28;20030;-80
2022/10/21 07:17:48;;;;;;;24.20;13.07;;;;;;;10.31;49.49;94803.78;5042343;28;20436;-77
2022/10/21 07:20:13;;;;;;;26.58;14.20;;;;;;;9.90;50.21;94792.09;5045562;28;20098;-78
2022/10/21 07:22:38;;;;;;;21.90;13.38;;;;;;;10.15;50.45;94810.38;5046494;28;20029;-77
2022/10/21 07:25:04;;;;;;;22.73;12.95;;;;;;;10.25;50.50;94818.22;5044951;28;20062;-77
2022/10/21 07:27:30;;;;;;;27.25;13.95;;;;;;;10.15;50.38;94793.63;5049084;28;20028;-79
2022/10/21 07:29:55;;;;;;;24.35;12.80;;;;;;;10.21;50.04;94784.53;5045078;28;20121;-77
2022/10/21 07:32:20;;;;;;;20.95;13.00;;;;;;;10.25;50.28;94796.97;5047710;28;20032;-78
2022/10/21 07:34:46;;;;;;;20.73;12.30;;;;;;;10.37;49.94;94766.53;5047085;28;20601;-79
2022/10/21 07:37:11;;;;;;;23.67;13.65;;;;;;;10.58;50.02;94794.38;5046958;28;20025;-77
2022/10/21 07:39:37;;;;;;;23.75;13.75;;;;;;;10.77;50.19;94808.47;5044265;28;20408;-78
2022/10/21 07:42:02;;;;;;;28.52;14.32;;;;;;;10.09;51.17;94787.59;5046160;28;20024;-77
2022/10/21 07:44:28;;;;;;;23.75;13.93;;;;;;;10.44;50.67;94809.50;5025035;28;20029;-78
2022/10/21 07:46:54;;;;;;;30.33;13.48;;;;;;;10.21;51.28;94787.97;5045628;28;20162;-79
2022/10/21 07:49:20;;;;;;;28.50;14.60;;;;;;;10.06;51.45;94758.94;5018955;28;20028;-78
2022/10/21 07:51:46;;;;;;;24.27;14.00;;;;;;;9.88;52.41;94749.06;5035733;28;20553;-77
2022/10/21 07:54:13;;;;;;;23.08;13.55;;;;;;;10.01;52.25;94782.94;5040362;28;20032;-77
2022/10/21 07:56:41;;;;;;;20.98;13.13;;;;;;;10.17;52.66;94804.78;5042054;28;20587;-78
2022/10/21 07:59:08;;;;;;;25.00;12.70;;;;;;;10.10;52.50;94794.50;5048191;28;20020;-78
2022/10/21 08:01:35;;;;;;;21.83;12.60;;;;;;;10.09;52.92;94786.81;5045986;28;20162;-78
2022/10/21 08:04:01;;;;;;;24.08;12.18;;;;;;;9.82;52.92;94752.88;5045392;28;20097;-78
2022/10/21 08:06:27;;;;;;;23.42;12.07;;;;;;;10.37;52.46;94790.47;5046759;28;20481;-77
2022/10/21 08:08:56;;;;;;;19.85;11.57;;;;;;;10.54;53.21;94793.38;5046326;28;20044;-78
2022/10/21 08:11:27;;;;;;;23.10;11.48;;;;;;;10.51;52.22;94757.53;5044263;28;20047;-77
2022/10/21 08:13:54;;;;;;;27.08;12.38;;;;;;;10.48;52.11;94747.47;5038785;28;20119;-78
2022/10/21 08:16:19;;;;;;;18.75;11.52;;;;;;;10.78;52.04;94794.09;5045068;28;20045;-78
2022/10/21 08:18:45;;;;;;;20.10;9.85;;;;;;;10.89;52.49;94776.88;5043816;28;20056;-77
2022/10/21 08:21:10;;;;;;;16.17;10.35;;;;;;;10.70;51.53;94749.53;5048437;28;20078;-77
2022/10/21 08:23:36;;;;;;;20.23;11.05;;;;;;;10.55;52.03;94779.00;5032648;28;20029;-79
2022/10/21 08:26:02;;;;;;;18.88;11.90;;;;;;;10.62;51.87;94763.47;5021470;28;20037;-78
2022/10/21 08:28:29;;;;;;;18.65;10.65;;;;;;;10.77;52.04;94765.88;5034117;28;20025;-79
2022/10/21 08:31:18;;;;;;;20.48;10.93;;;;;;;10.94;51.93;94768.81;5046983;28;20548;-77
2022/10/21 08:33:44;;;;;;;23.05;10.05;;;;;;;11.15;51.23;94779.88;5046339;28;20086;-79
2022/10/21 08:36:15;;;;;;;19.75;10.70;;;;;;;10.95;51.40;94782.91;5031307;28;20481;-78
2022/10/21 08:38:41;;;;;;;18.27;11.35;;;;;;;10.87;52.06;94760.41;5047284;28;20181;-78
2022/10/21 08:41:29;;;;;;;17.85;9.85;;;;;;;10.71;52.18;94751.88;5046936;28;20572;-78
2022/10/21 08:44:17;;;;;;;23.52;11.13;;;;;;;10.60;52.50;94782.41;5041730;28;20041;-79
2022/10/21 08:46:52;;;;;;;21.25;11.88;;;;;;;10.63;52.09;94767.72;5033373;28;20037;-78
2022/10/21 08:49:26;;;;;;;23.33;11.98;;;;;;;10.60;52.46;94771.75;5048510;28;20545;-77
2022/10/21 08:52:02;;;;;;;16.70;9.85;;;;;;;10.23;53.03;94729.97;5041608;28;20401;-79
2022/10/21 08:54:52;;;;;;;19.77;11.02;;;;;;;10.95;52.38;94783.72;5049304;28;20085;-79
2022/10/21 08:57:18;;;;;;;17.63;11.00;;;;;;;10.91;51.53;94745.44;5048518;28;20484;-79
2022/10/21 08:59:45;;;;;;;22.40;12.00;;;;;;;11.00;52.07;94775.59;5051839;28;20094;-79
2022/10/21 09:02:34;;;;;;;21.77;11.15;;;;;;;11.02;52.26;94767.34;5047726;28;20024;-80
2022/10/21 09:05:21;;;;;;;19.58;11.88;;;;;;;11.21;51.52;94762.75;5051027;28;20443;-78
2022/10/21 09:08:09;;;;;;;19.63;10.93;;;;;;;11.22;51.56;94766.19;5048761;28;20414;-77
2022/10/21 09:11:06;;;;;;;15.65;10.48;;;;;;;11.46;51.42;94756.16;5047169;28;20123;-77
2022/10/21 09:14:02;;;;;;;18.92;10.80;;;;;;;11.59;50.86;94750.88;5016774;28;20481;-77
2022/10/21 09:16:28;;;;;;;30.23;12.30;;;;;;;11.72;50.52;94743.97;5044802;28;20128;-78
2022/10/21 09:19:12;;;;;;;16.52;10.20;;;;;;;11.63;50.55;94740.44;5050086;28;20068;-80
2022/10/21 09:21:54;;;;;;;21.05;10.60;;;;;;;11.59;50.43;94748.19;5047481;28;20111;-80
2022/10/21 09:24:40;;;;;;;20.67;11.07;;;;;;;11.32;51.36;94750.84;5048370;28;20052;-77
2022/10/21 09:27:09;;;;;;;18.48;11.18;;;;;;;11.17;51.47;94737.78;5044253;28;20036;-79
2022/10/21 09:29:42;;;;;;;19.17;11.20;;;;;;;11.19;51.75;94735.63;5046200;28;20042;-77
2022/10/21 09:32:10;;;;;;;17.23;10.52;;;;;;;11.45;51.03;94738.59;5026445;28;20025;-77
2022/10/21 09:34:59;;;;;;;19.10;9.70;;;;;;;11.10;51.31;94732.84;5042474;28;20029;-76
2022/10/21 09:37:37;;;;;;;19.10;9.70;;;;;;;11.09;51.89;94725.97;5027342;28;20033;-79
2022/10/21 09:40:15;;;;;;;21.95;10.48;;;;;;;10.93;52.00;94735.28;5048920;28;20480;-80
2022/10/21 09:42:41;;;;;;;19.15;10.85;;;;;;;11.14;52.24;94730.41;5045703;28;20038;-78
2022/10/21 09:45:15;;;;;;;19.38;10.27;;;;;;;11.36;52.12;94735.84;5049201;28;20043;-80
2022/10/21 09:47:41;;;;;;;22.70;10.60;;;;;;;11.43;51.33;94738.13;5029919;28;20029;-79
2022/10/21 09:50:15;;;;;;;16.77;9.75;;;;;;;11.72;51.04;94733.31;5049310;28;20020;-79
2022/10/21 09:52:54;;;;;;;20.65;11.20;;;;;;;11.87;50.42;94719.69;5045437;28;20438;-80
2022/10/21 09:55:19;;;;;;;18.20;10.38;;;;;;;11.80;50.24;94740.59;5046923;28;20111;-80
2022/10/21 09:57:56;;;;;;;18.05;10.48;;;;;;;11.86;49.92;94738.63;5047451;28;20587;-80
2022/10/21 10:00:21;;;;;;;21.35;11.85;;;;;;;11.97;49.53;94732.78;5046279;28;20289;-80
2022/10/21 10:02:48;;;;;;;27.60;11.07;;;;;;;12.24;49.41;94733.81;5047466;28;20511;-78
2022/10/21 10:05:37;;;;;;;18.27;11.07;;;;;;;12.16;49.24;94732.66;5046291;28;20502;-79
2022/10/21 10:08:32;;;;;;;26.73;11.20;;;;;;;12.24;49.23;94718.59;5041772;28;20028;-78
2022/10/21 10:11:01;;;;;;;17.45;11.23;;;;;;;12.27;49.36;94715.31;5048614;28;20032;-79
2022/10/21 10:13:28;;;;;;;15.77;9.95;;;;;;;12.45;48.99;94714.38;5046903;28;20481;-79
2022/10/21 10:15:53;;;;;;;17.88;9.93;;;;;;;12.49;48.72;94706.53;5046414;28;20411;-79
2022/10/21 10:18:21;;;;;;;17.10;10.30;;;;;;;12.78;48.65;94701.59;5031380;28;20045;-80
2022/10/21 10:21:03;;;;;;;16.75;10.13;;;;;;;12.71;47.53;94701.22;5042277;28;20159;-79
2022/10/21 10:23:29;;;;;;;16.02;9.00;;;;;;;12.73;47.32;94691.03;5032647;28;20053;-80
2022/10/21 10:25:54;;;;;;;16.33;9.55;;;;;;;12.66;47.42;94697.91;5042545;28;20135;-80
2022/10/21 10:28:24;;;;;;;14.77;9.43;;;;;;;12.94;48.08;94714.56;5041167;28;20033;-79
2022/10/21 10:30:53;;;;;;;16.40;10.07;;;;;;;12.99;46.92;94696.53;5040370;28;20033;-81
2022/10/21 10:33:22;;;;;;;15.07;9.85;;;;;;;12.92;46.63;94682.03;5039933;28;20024;-80
2022/10/21 10:35:54;;;;;;;21.83;10.13;;;;;;;12.76;47.29;94671.75;5042859;28;20079;-78
2022/10/21 10:38:34;;;;;;;17.33;9.88;;;;;;;13.01;47.58;94694.34;5020516;28;20021;-78
2022/10/21 10:41:18;;;;;;;14.60;9.60;;;;;;;12.79;46.81;94681.81;5032822;28;20574;-79
2022/10/21 10:43:49;;;;;;;17.65;10.60;;;;;;;13.13;46.79;94688.44;5043280;28;20039;-79
2022/10/21 10:46:35;;;;;;;17.75;10.43;;;;;;;13.13;46.72;94680.41;5040160;28;20025;-79
2022/10/21 10:49:13;;;;;;;19.27;10.25;;;;;;;13.21;46.51;94677.00;5040419;28;20024;-78
2022/10/21 10:51:42;;;;;;;16.17;9.55;;;;;;;13.26;45.90;94663.50;5041860;28;20622;-78
2022/10/21 10:54:26;;;;;;;17.48;9.77;;;;;;;12.82;46.52;94637.69;5043200;28;20079;-78
2022/10/21 10:57:13;;;;;;;19.95;11.18;;;;;;;12.99;46.80;94659.16;5043082;28;20037;-79
2022/10/21 10:59:51;;;;;;;22.00;12.10;;;;;;;13.23;46.92;94667.59;5047081;28;20462;-78
2022/10/21 11:02:54;;;;;;;18.45;10.30;;;;;;;13.35;46.10;94664.31;5022387;28;20071;-79
2022/10/21 11:05:43;;;;;;;18.85;10.00;;;;;;;13.53;46.27;94647.25;5039226;28;20111;-79
2022/10/21 11:08:33;;;;;;;17.38;9.95;;;;;;;13.81;45.67;94652.34;5042806;28;20024;-80
2022/10/21 11:11:02;;;;;;;14.48;9.38;;;;;;;13.91;45.11;94642.13;5044678;28;20505;-78
2022/10/21 11:13:28;;;;;;;17.25;9.35;;;;;;;13.78;44.52;94619.03;5041727;28;20025;-81
2022/10/21 11:16:18;;;;;;;21.42;9.95;;;;;;;13.61;45.22;94643.81;5045149;28;20207;-79
2022/10/21 11:18:49;;;;;;;14.60;9.50;;;;;;;13.74;45.52;94636.75;5027670;28;20509;-80
2022/10/21 11:21:36;;;;;;;13.50;9.50;;;;;;;13.66;45.68;94635.66;5046006;28;20032;-79
2022/10/21 11:24:32;;;;;;;15.57;8.85;;;;;;;13.68;45.89;94628.13;5041177;28;20612;-79
2022/10/21 11:27:21;;;;;;;15.27;9.15;;;;;;;13.92;45.36;94625.00;5048912;28;20032;-79
2022/10/21 11:30:02;;;;;;;15.80;9.25;;;;;;;13.92;44.97;94616.97;5036724;28;20033;-79
2022/10/21 11:32:52;;;;;;;13.73;9.85;;;;;;;13.88;45.07;94615.25;5048422;28;20079;-78
2022/10/21 11:35:36;;;;;;;15.25;9.63;;;;;;;13.75;44.99;94591.00;5047147;28;20029;-78
2022/10/21 11:38:28;;;;;;;15.13;9.35;;;;;;;13.92;45.08;94594.78;5048270;28;20032;-80
2022/10/21 11:41:26;;;;;;;18.52;9.88;;;;;;;14.01;44.73;94619.66;5046072;28;20056;-76
2022/10/21 11:43:56;;;;;;;13.00;9.60;;;;;;;13.95;45.00;94599.50;4991996;28;20041;-80